Detalii statie UNIC PROD [00001D09]

Toti senzorii

Date Temperatura solului [C]Precipitatii [mm]Voltaj baterie [mV]Leaf Wetness [Min]HC Air temperature [C]HC Relative humidity [%]Punctul de roua [C]
medieminmaxsumaultimatimpmedieminmaxmediemediemin
2018-02-23 13:00:00 2.9 2.7 3 0.2 7166 1.43 0.9 2.19 100 1.3 0.9
2018-02-23 14:00:00 2.9 2.9 3.1 0 7108 1.91 1.69 2.14 100 1.8 1.6
2018-02-23 15:00:00 3 2.9 3.1 0 7088 2.07 1.91 2.28 99.66 1.9 1.8
2018-02-23 16:00:00 3.1 3 3.2 0 7020 2.03 1.91 2.21 98.44 1.7 1.5
2018-02-23 17:00:00 3.2 3.1 3.4 0 6982 1.97 1.91 2.04 97.86 1.5 1.5
2018-02-23 18:00:00 3.3 3.2 3.4 0 6952 1.85 1.79 1.99 99.28 1.6 1.5
2018-02-23 19:00:00 3.4 3.2 3.5 0 6942 1.67 1.6 1.72 100 1.6 1.6
2018-02-23 20:00:00 3.4 3.3 3.5 0 6922 1.51 1.38 1.64 100 1.4 1.3
2018-02-23 21:00:00 3.4 3.4 3.5 0 6922 1.29 1.23 1.36 100 1.2 1.2
2018-02-23 22:00:00 3.4 3.4 3.5 0 6914 1.19 1.12 1.24 100 1.1 1.1
2018-02-23 23:00:00 3.4 3.3 3.5 0 6904 1.04 0.98 1.1 100 1 0.9
2018-02-24 00:00:00 3.4 3.3 3.5 0 6894 0.87 0.76 1.03 100 0.8 0.7
2018-02-24 01:00:00 3.4 3.3 3.5 0 6884 0.84 0.8 0.87 100 0.8 0.8
2018-02-24 02:00:00 3.4 3.3 3.5 0 6874 0.83 0.81 0.87 100 0.8 0.8
2018-02-24 03:00:00 3.3 3.2 3.5 0 6854 0.98 0.92 1.07 100 0.9 0.9
2018-02-24 04:00:00 3.2 3.2 3.4 0 6844 1.21 1.09 1.28 100 1.1 1
2018-02-24 05:00:00 3.3 3.2 3.4 0 6834 1.13 0.84 1.27 100 1 0.8
2018-02-24 06:00:00 3.3 3.3 3.4 0 6826 0.79 0.76 0.82 100 0.7 0.7
2018-02-24 07:00:00 3.2 3.1 3.4 0 6806 0.81 0.74 0.88 100 0.7 0.7
2018-02-24 08:00:00 3.2 3.2 3.4 0 6806 0.81 0.74 0.93 100 0.7 0.7
2018-02-24 09:00:00 3.2 3.1 3.4 0 6806 1.14 0.97 1.31 100 1 0.9
2018-02-24 10:00:00 3.1 3.1 3.2 0 6826 1.52 1.37 1.69 100 1.4 1.3
2018-02-24 11:00:00 3.2 3.2 3.4 0 6826 1.66 1.44 1.78 100 1.6 1.4
2018-02-24 12:00:00 3.2 3.1 3.3 0 6844 1.39 1.31 1.47 100 1.3 1.3
2018-02-24 13:00:00 3.2 3.2 3.4 0 6834 1.06 0.92 1.23 100 1 0.9
2018-02-24 14:00:00 3.2 3.2 3.4 0 6844 0.84 0.75 0.95 100 0.8 0.7
2018-02-24 15:00:00 3.2 3.1 3.4 0 6826 0.66 0.54 0.8 100 0.6 0.5
2018-02-24 16:00:00 3.3 3.2 3.4 0 6826 0.07 -0.23 0.61 100 0.1 -0.1
2018-02-24 17:00:00 3.3 3.2 3.4 0 6786 -0.43 -0.61 -0.2 100 -0.2 -0.5
2018-02-24 18:00:00 3.3 3.2 3.4 0 6766 -0.78 -0.91 -0.63 100 -0.6 -0.8
2018-02-24 19:00:00 3.3 3.3 3.3 0 6766 -1.17 -1.46 -0.9 100 -1 -1.3
2018-02-24 20:00:00 3.3 3.1 3.4 0 6756 -2.14 -2.69 -1.45 100 -2 -2.5
2018-02-24 21:00:00 3.2 3.2 3.4 0 6756 -2.77 -3.09 -2.49 100 -2.6 -2.9
2018-02-24 22:00:00 3.1 3.1 3.2 0 6756 -3.12 -3.23 -3.07 100 -2.9 -3.1
2018-02-24 23:00:00 3.1 2.9 3.2 0 6748 -3.46 -3.69 -3.23 99.63 -3.3 -3.8
2018-02-25 00:00:00 3 3 3.2 0 6748 -3.52 -3.67 -3.37 91.86 -4.5 -5.3
2018-02-25 01:00:00 3 3 3.2 0 6748 -3.39 -3.41 -3.37 84.63 -5.5 -6.1
2018-02-25 02:00:00 3 2.8 3.1 0 6748 -3.45 -3.51 -3.42 82.56 -5.9 -6.7
2018-02-25 03:00:00 2.9 2.9 3 0 6748 -3.6 -3.73 -3.5 78.26 -6.7 -7.1
2018-02-25 04:00:00 2.9 2.8 3.1 0 6748 -3.87 -4.03 -3.73 76.18 -7.3 -8
2018-02-25 05:00:00 2.8 2.7 2.9 0 6738 -4.26 -4.51 -4.07 75.34 -7.8 -8.4
2018-02-25 06:00:00 2.8 2.8 2.9 0 6748 -4.64 -4.79 -4.53 76.62 -8 -8.3
2018-02-25 07:00:00 2.8 2.6 2.9 0 6738 -4.97 -5.19 -4.75 79.69 -7.8 -8.2
2018-02-25 08:00:00 2.7 2.7 2.8 0 6776 -5.41 -5.53 -5.19 81.01 -8 -8.3
2018-02-25 09:00:00 2.7 2.5 2.8 0 7166 -5.09 -5.43 -4.87 80.55 -7.8 -8
2018-02-25 10:00:00 2.7 2.6 2.8 0 7236 -4.61 -4.96 -4.27 76.78 -8 -8.4
2018-02-25 11:00:00 2.6 2.5 2.8 0 7236 -4.09 -4.33 -3.84 76.7 -7.5 -7.9
2018-02-25 12:00:00 2.6 2.4 2.7 0 7236 -3.93 -4.19 -3.6 75.46 -7.5 -7.8